sensor_id;sensor_type;location;lat;lon;timestamp;pressure;altitude;pressure_sealevel;temperature;humidity
54924;BME280;40825;52.270;20.984;2023-09-30T00:01:01;100705.44;;;18.34;62.58
54924;BME280;40825;52.270;20.984;2023-09-30T00:03:31;100701.14;;;18.32;62.82
54924;BME280;40825;52.270;20.984;2023-09-30T00:05:56;100705.86;;;18.31;62.80
54924;BME280;40825;52.270;20.984;2023-09-30T00:08:22;100705.48;;;18.28;62.63
54924;BME280;40825;52.270;20.984;2023-09-30T00:10:47;100701.86;;;18.28;63.01
54924;BME280;40825;52.270;20.984;2023-09-30T00:13:13;100697.80;;;18.26;62.95
54924;BME280;40825;52.270;20.984;2023-09-30T00:15:38;100697.99;;;18.25;62.78
54924;BME280;40825;52.270;20.984;2023-09-30T00:18:04;100695.02;;;18.24;63.15
54924;BME280;40825;52.270;20.984;2023-09-30T00:20:30;100696.02;;;18.23;63.34
54924;BME280;40825;52.270;20.984;2023-09-30T00:22:56;100691.80;;;18.23;63.23
54924;BME280;40825;52.270;20.984;2023-09-30T00:25:21;100693.02;;;18.22;63.37
54924;BME280;40825;52.270;20.984;2023-09-30T00:27:47;100694.77;;;18.21;63.56
54924;BME280;40825;52.270;20.984;2023-09-30T00:30:13;100692.77;;;18.20;63.62
54924;BME280;40825;52.270;20.984;2023-09-30T00:32:39;100691.34;;;18.20;63.68
54924;BME280;40825;52.270;20.984;2023-09-30T00:35:06;100692.52;;;18.19;63.48
54924;BME280;40825;52.270;20.984;2023-09-30T00:37:40;100688.49;;;18.20;63.78
54924;BME280;40825;52.270;20.984;2023-09-30T00:40:07;100682.67;;;18.19;63.64
54924;BME280;40825;52.270;20.984;2023-09-30T00:42:40;100684.36;;;18.19;63.56
54924;BME280;40825;52.270;20.984;2023-09-30T00:45:07;100685.13;;;18.19;63.65
54924;BME280;40825;52.270;20.984;2023-09-30T00:47:35;100686.59;;;18.19;63.52
54924;BME280;40825;52.270;20.984;2023-09-30T00:50:01;100686.15;;;18.19;63.59
54924;BME280;40825;52.270;20.984;2023-09-30T00:52:30;100688.19;;;18.19;63.72
54924;BME280;40825;52.270;20.984;2023-09-30T00:54:57;100689.03;;;18.18;63.66
54924;BME280;40825;52.270;20.984;2023-09-30T00:57:23;100688.64;;;18.17;63.99
54924;BME280;40825;52.270;20.984;2023-09-30T00:59:50;100688.83;;;18.16;63.93
54924;BME280;40825;52.270;20.984;2023-09-30T01:02:17;100681.58;;;18.15;63.74
54924;BME280;40825;52.270;20.984;2023-09-30T01:04:44;100682.20;;;18.14;63.70
54924;BME280;40825;52.270;20.984;2023-09-30T01:07:09;100686.95;;;18.14;63.81
54924;BME280;40825;52.270;20.984;2023-09-30T01:09:37;100685.85;;;18.13;64.13
54924;BME280;40825;52.270;20.984;2023-09-30T01:12:03;100683.95;;;18.12;64.06
54924;BME280;40825;52.270;20.984;2023-09-30T01:14:33;100693.44;;;18.12;64.25
54924;BME280;40825;52.270;20.984;2023-09-30T01:17:07;100694.79;;;18.10;64.37
54924;BME280;40825;52.270;20.984;2023-09-30T01:19:34;100698.46;;;18.07;64.56
54924;BME280;40825;52.270;20.984;2023-09-30T01:22:00;100695.96;;;18.05;65.12
54924;BME280;40825;52.270;20.984;2023-09-30T01:24:26;100695.46;;;18.03;65.05
54924;BME280;40825;52.270;20.984;2023-09-30T01:26:52;100691.48;;;18.02;65.51
54924;BME280;40825;52.270;20.984;2023-09-30T01:29:18;100685.84;;;18.00;65.70
54924;BME280;40825;52.270;20.984;2023-09-30T01:31:44;100685.79;;;17.98;66.46
54924;BME280;40825;52.270;20.984;2023-09-30T01:34:14;100688.27;;;17.95;66.56
54924;BME280;40825;52.270;20.984;2023-09-30T01:36:41;100687.80;;;17.94;66.62
54924;BME280;40825;52.270;20.984;2023-09-30T01:39:08;100683.87;;;17.93;67.58
54924;BME280;40825;52.270;20.984;2023-09-30T01:41:36;100682.48;;;17.89;68.05
54924;BME280;40825;52.270;20.984;2023-09-30T01:44:01;100676.70;;;17.84;67.77
54924;BME280;40825;52.270;20.984;2023-09-30T01:46:27;100677.08;;;17.81;68.04
54924;BME280;40825;52.270;20.984;2023-09-30T01:48:53;100671.93;;;17.79;68.40
54924;BME280;40825;52.270;20.984;2023-09-30T01:51:18;100670.75;;;17.77;67.67
54924;BME280;40825;52.270;20.984;2023-09-30T01:53:43;100664.77;;;17.76;67.94
54924;BME280;40825;52.270;20.984;2023-09-30T01:56:09;100671.02;;;17.77;67.54
54924;BME280;40825;52.270;20.984;2023-09-30T01:58:34;100675.80;;;17.78;67.77
54924;BME280;40825;52.270;20.984;2023-09-30T02:01:03;100672.88;;;17.79;67.84
54924;BME280;40825;52.270;20.984;2023-09-30T02:03:29;100672.14;;;17.81;67.88
54924;BME280;40825;52.270;20.984;2023-09-30T02:05:56;100669.98;;;17.81;67.97
54924;BME280;40825;52.270;20.984;2023-09-30T02:08:22;100670.35;;;17.81;67.32
54924;BME280;40825;52.270;20.984;2023-09-30T02:10:48;100667.82;;;17.80;67.69
54924;BME280;40825;52.270;20.984;2023-09-30T02:13:13;100669.54;;;17.80;67.82
54924;BME280;40825;52.270;20.984;2023-09-30T02:15:42;100665.90;;;17.79;67.94
54924;BME280;40825;52.270;20.984;2023-09-30T02:18:07;100659.90;;;17.77;67.99
54924;BME280;40825;52.270;20.984;2023-09-30T02:20:33;100662.42;;;17.77;67.45
54924;BME280;40825;52.270;20.984;2023-09-30T02:22:59;100664.48;;;17.77;67.32
54924;BME280;40825;52.270;20.984;2023-09-30T02:25:25;100659.31;;;17.75;67.27
54924;BME280;40825;52.270;20.984;2023-09-30T02:27:50;100662.77;;;17.75;67.25
54924;BME280;40825;52.270;20.984;2023-09-30T02:30:16;100661.21;;;17.75;67.21
54924;BME280;40825;52.270;20.984;2023-09-30T02:32:42;100663.70;;;17.76;67.55
54924;BME280;40825;52.270;20.984;2023-09-30T02:35:09;100665.74;;;17.75;67.56
54924;BME280;40825;52.270;20.984;2023-09-30T02:37:38;100664.95;;;17.76;67.70
54924;BME280;40825;52.270;20.984;2023-09-30T02:40:04;100663.89;;;17.74;67.62
54924;BME280;40825;52.270;20.984;2023-09-30T02:42:31;100662.60;;;17.75;67.62
54924;BME280;40825;52.270;20.984;2023-09-30T02:44:59;100662.60;;;17.75;67.49
54924;BME280;40825;52.270;20.984;2023-09-30T02:47:25;100662.48;;;17.74;67.28
54924;BME280;40825;52.270;20.984;2023-09-30T02:49:51;100665.65;;;17.76;67.18
54924;BME280;40825;52.270;20.984;2023-09-30T02:52:16;100661.52;;;17.77;67.33
54924;BME280;40825;52.270;20.984;2023-09-30T02:54:42;100663.89;;;17.79;67.62
54924;BME280;40825;52.270;20.984;2023-09-30T02:57:07;100660.75;;;17.79;67.55
54924;BME280;40825;52.270;20.984;2023-09-30T02:59:35;100665.08;;;17.79;67.53
54924;BME280;40825;52.270;20.984;2023-09-30T03:02:01;100666.26;;;17.78;67.23
54924;BME280;40825;52.270;20.984;2023-09-30T03:04:28;100665.92;;;17.78;67.39
54924;BME280;40825;52.270;20.984;2023-09-30T03:06:54;100662.76;;;17.78;67.28
54924;BME280;40825;52.270;20.984;2023-09-30T03:09:22;100659.16;;;17.77;67.62
54924;BME280;40825;52.270;20.984;2023-09-30T03:11:47;100656.11;;;17.77;67.50
54924;BME280;40825;52.270;20.984;2023-09-30T03:14:14;100652.92;;;17.77;67.56
54924;BME280;40825;52.270;20.984;2023-09-30T03:16:40;100658.04;;;17.76;67.33
54924;BME280;40825;52.270;20.984;2023-09-30T03:19:07;100652.31;;;17.76;67.18
54924;BME280;40825;52.270;20.984;2023-09-30T03:21:34;100652.88;;;17.77;67.80
54924;BME280;40825;52.270;20.984;2023-09-30T03:24:04;100651.54;;;17.75;67.58
54924;BME280;40825;52.270;20.984;2023-09-30T03:26:31;100649.76;;;17.75;67.47
54924;BME280;40825;52.270;20.984;2023-09-30T03:28:56;100652.78;;;17.75;67.54
54924;BME280;40825;52.270;20.984;2023-09-30T03:31:22;100654.45;;;17.75;68.36
54924;BME280;40825;52.270;20.984;2023-09-30T03:33:51;100654.48;;;17.74;68.74
54924;BME280;40825;52.270;20.984;2023-09-30T03:36:22;100650.05;;;17.69;69.42
54924;BME280;40825;52.270;20.984;2023-09-30T03:38:51;100651.36;;;17.65;69.34
54924;BME280;40825;52.270;20.984;2023-09-30T03:41:19;100649.77;;;17.63;69.43
54924;BME280;40825;52.270;20.984;2023-09-30T03:43:45;100646.17;;;17.59;71.00
54924;BME280;40825;52.270;20.984;2023-09-30T03:46:10;100644.02;;;17.54;69.96
54924;BME280;40825;52.270;20.984;2023-09-30T03:48:37;100640.14;;;17.50;70.91
54924;BME280;40825;52.270;20.984;2023-09-30T03:51:11;100641.77;;;17.47;70.84
54924;BME280;40825;52.270;20.984;2023-09-30T03:53:46;100638.71;;;17.43;71.42
54924;BME280;40825;52.270;20.984;2023-09-30T03:56:12;100641.23;;;17.43;70.88
54924;BME280;40825;52.270;20.984;2023-09-30T03:58:41;100639.63;;;17.45;71.93
54924;BME280;40825;52.270;20.984;2023-09-30T04:01:08;100639.64;;;17.44;71.84
54924;BME280;40825;52.270;20.984;2023-09-30T04:03:39;100644.79;;;17.42;72.02
54924;BME280;40825;52.270;20.984;2023-09-30T04:06:05;100646.23;;;17.40;72.37
54924;BME280;40825;52.270;20.984;2023-09-30T04:08:34;100648.95;;;17.38;71.90
54924;BME280;40825;52.270;20.984;2023-09-30T04:11:01;100648.72;;;17.38;72.55
54924;BME280;40825;52.270;20.984;2023-09-30T04:13:28;100646.80;;;17.37;72.37
54924;BME280;40825;52.270;20.984;2023-09-30T04:15:55;100647.81;;;17.36;72.76
54924;BME280;40825;52.270;20.984;2023-09-30T04:18:24;100648.67;;;17.37;72.35
54924;BME280;40825;52.270;20.984;2023-09-30T04:20:52;100645.10;;;17.38;71.92
54924;BME280;40825;52.270;20.984;2023-09-30T04:23:17;100644.59;;;17.38;72.06
54924;BME280;40825;52.270;20.984;2023-09-30T04:25:46;100641.73;;;17.38;72.19
54924;BME280;40825;52.270;20.984;2023-09-30T04:28:12;100641.86;;;17.40;71.95
54924;BME280;40825;52.270;20.984;2023-09-30T04:30:39;100641.48;;;17.40;71.63
54924;BME280;40825;52.270;20.984;2023-09-30T04:33:05;100639.67;;;17.42;71.82
54924;BME280;40825;52.270;20.984;2023-09-30T04:35:31;100645.14;;;17.43;71.95
54924;BME280;40825;52.270;20.984;2023-09-30T04:37:56;100646.20;;;17.44;71.69
54924;BME280;40825;52.270;20.984;2023-09-30T04:40:26;100640.17;;;17.45;71.80
54924;BME280;40825;52.270;20.984;2023-09-30T04:42:52;100635.84;;;17.45;71.76
54924;BME280;40825;52.270;20.984;2023-09-30T04:45:20;100637.02;;;17.47;71.30
54924;BME280;40825;52.270;20.984;2023-09-30T04:47:46;100635.67;;;17.49;71.46
54924;BME280;40825;52.270;20.984;2023-09-30T04:50:14;100632.58;;;17.48;71.71
54924;BME280;40825;52.270;20.984;2023-09-30T04:52:41;100636.77;;;17.47;71.64
54924;BME280;40825;52.270;20.984;2023-09-30T04:55:07;100642.52;;;17.49;71.58
54924;BME280;40825;52.270;20.984;2023-09-30T04:57:34;100639.48;;;17.49;71.65
54924;BME280;40825;52.270;20.984;2023-09-30T04:59:59;100637.64;;;17.48;71.97
54924;BME280;40825;52.270;20.984;2023-09-30T05:02:27;100631.55;;;17.48;71.83
54924;BME280;40825;52.270;20.984;2023-09-30T05:04:53;100633.02;;;17.49;71.43
54924;BME280;40825;52.270;20.984;2023-09-30T05:07:20;100635.33;;;17.50;71.70
54924;BME280;40825;52.270;20.984;2023-09-30T05:09:47;100635.45;;;17.50;72.01
54924;BME280;40825;52.270;20.984;2023-09-30T05:12:12;100637.08;;;17.51;71.77
54924;BME280;40825;52.270;20.984;2023-09-30T05:14:38;100632.16;;;17.51;71.81
54924;BME280;40825;52.270;20.984;2023-09-30T05:17:04;100636.23;;;17.52;71.84
54924;BME280;40825;52.270;20.984;2023-09-30T05:19:30;100640.71;;;17.54;71.88
54924;BME280;40825;52.270;20.984;2023-09-30T05:21:57;100643.11;;;17.54;72.34
54924;BME280;40825;52.270;20.984;2023-09-30T05:24:23;100644.98;;;17.54;73.01
54924;BME280;40825;52.270;20.984;2023-09-30T05:26:48;100649.34;;;17.54;73.20
54924;BME280;40825;52.270;20.984;2023-09-30T05:29:14;100651.66;;;17.54;73.03
54924;BME280;40825;52.270;20.984;2023-09-30T05:31:39;100653.78;;;17.54;73.13
54924;BME280;40825;52.270;20.984;2023-09-30T05:34:05;100652.09;;;17.56;73.16
54924;BME280;40825;52.270;20.984;2023-09-30T05:36:30;100654.70;;;17.56;72.71
54924;BME280;40825;52.270;20.984;2023-09-30T05:38:56;100655.91;;;17.57;73.03
54924;BME280;40825;52.270;20.984;2023-09-30T05:41:21;100658.75;;;17.58;72.83
54924;BME280;40825;52.270;20.984;2023-09-30T05:43:47;100660.62;;;17.60;72.70
54924;BME280;40825;52.270;20.984;2023-09-30T05:46:13;100661.53;;;17.62;73.23
54924;BME280;40825;52.270;20.984;2023-09-30T05:48:38;100665.33;;;17.62;72.67
54924;BME280;40825;52.270;20.984;2023-09-30T05:51:07;100669.73;;;17.64;73.44
54924;BME280;40825;52.270;20.984;2023-09-30T05:53:32;100674.08;;;17.65;73.43
54924;BME280;40825;52.270;20.984;2023-09-30T05:55:59;100679.31;;;17.65;73.26
54924;BME280;40825;52.270;20.984;2023-09-30T05:58:25;100685.34;;;17.66;73.84
54924;BME280;40825;52.270;20.984;2023-09-30T06:00:54;100687.42;;;17.65;75.11
54924;BME280;40825;52.270;20.984;2023-09-30T06:03:20;100692.25;;;17.62;75.25
54924;BME280;40825;52.270;20.984;2023-09-30T06:05:48;100695.53;;;17.59;76.36
54924;BME280;40825;52.270;20.984;2023-09-30T06:08:14;100691.15;;;17.54;76.81
54924;BME280;40825;52.270;20.984;2023-09-30T06:10:40;100690.34;;;17.50;77.44
54924;BME280;40825;52.270;20.984;2023-09-30T06:13:09;100696.38;;;17.46;77.69
54924;BME280;40825;52.270;20.984;2023-09-30T06:15:37;100701.63;;;17.42;77.92
54924;BME280;40825;52.270;20.984;2023-09-30T06:18:06;100706.65;;;17.40;77.58
54924;BME280;40825;52.270;20.984;2023-09-30T06:20:32;100710.48;;;17.38;78.16
54924;BME280;40825;52.270;20.984;2023-09-30T06:22:59;100711.29;;;17.38;78.02
54924;BME280;40825;52.270;20.984;2023-09-30T06:25:26;100709.48;;;17.39;78.84
54924;BME280;40825;52.270;20.984;2023-09-30T06:27:53;100712.85;;;17.38;79.02
54924;BME280;40825;52.270;20.984;2023-09-30T06:30:23;100714.30;;;17.38;81.22
54924;BME280;40825;52.270;20.984;2023-09-30T06:32:56;100712.00;;;17.37;80.43
54924;BME280;40825;52.270;20.984;2023-09-30T06:35:22;100713.89;;;17.35;82.46
54924;BME280;40825;52.270;20.984;2023-09-30T06:37:48;100711.83;;;17.30;84.11
54924;BME280;40825;52.270;20.984;2023-09-30T06:40:14;100718.24;;;17.25;84.16
54924;BME280;40825;52.270;20.984;2023-09-30T06:42:40;100718.78;;;17.20;87.03
54924;BME280;40825;52.270;20.984;2023-09-30T06:45:06;100719.70;;;17.12;85.44
54924;BME280;40825;52.270;20.984;2023-09-30T06:47:33;100721.83;;;17.05;86.33
54924;BME280;40825;52.270;20.984;2023-09-30T06:50:03;100725.96;;;17.00;86.11
54924;BME280;40825;52.270;20.984;2023-09-30T06:52:38;100728.70;;;16.97;87.48
54924;BME280;40825;52.270;20.984;2023-09-30T06:55:05;100729.13;;;16.95;89.51
54924;BME280;40825;52.270;20.984;2023-09-30T06:57:33;100729.29;;;16.93;90.18
54924;BME280;40825;52.270;20.984;2023-09-30T06:59:59;100735.38;;;16.91;90.11
54924;BME280;40825;52.270;20.984;2023-09-30T07:02:25;100739.57;;;16.89;90.47
54924;BME280;40825;52.270;20.984;2023-09-30T07:04:52;100744.73;;;16.88;90.55
54924;BME280;40825;52.270;20.984;2023-09-30T07:07:18;100743.20;;;16.87;90.62
54924;BME280;40825;52.270;20.984;2023-09-30T07:09:44;100747.47;;;16.87;89.87
54924;BME280;40825;52.270;20.984;2023-09-30T07:12:09;100751.94;;;16.88;89.97
54924;BME280;40825;52.270;20.984;2023-09-30T07:14:35;100750.16;;;16.88;91.09
54924;BME280;40825;52.270;20.984;2023-09-30T07:17:00;100751.53;;;16.87;91.56
54924;BME280;40825;52.270;20.984;2023-09-30T07:19:26;100754.02;;;16.87;92.54
54924;BME280;40825;52.270;20.984;2023-09-30T07:21:51;100760.00;;;16.87;91.63
54924;BME280;40825;52.270;20.984;2023-09-30T07:24:17;100760.56;;;16.89;91.49
54924;BME280;40825;52.270;20.984;2023-09-30T07:26:42;100759.95;;;16.90;91.23
54924;BME280;40825;52.270;20.984;2023-09-30T07:29:09;100760.50;;;16.91;92.01
54924;BME280;40825;52.270;20.984;2023-09-30T07:31:35;100758.01;;;16.92;92.73
54924;BME280;40825;52.270;20.984;2023-09-30T07:34:02;100759.95;;;16.92;92.57
54924;BME280;40825;52.270;20.984;2023-09-30T07:36:27;100765.91;;;16.93;93.08
54924;BME280;40825;52.270;20.984;2023-09-30T07:38:53;100772.69;;;16.92;93.48
54924;BME280;40825;52.270;20.984;2023-09-30T07:41:19;100770.46;;;16.90;95.63
54924;BME280;40825;52.270;20.984;2023-09-30T07:43:45;100771.97;;;16.88;95.00
54924;BME280;40825;52.270;20.984;2023-09-30T07:46:10;100770.53;;;16.89;95.13
54924;BME280;40825;52.270;20.984;2023-09-30T07:48:36;100773.11;;;16.90;95.35
54924;BME280;40825;52.270;20.984;2023-09-30T07:51:01;100770.18;;;16.94;95.16
54924;BME280;40825;52.270;20.984;2023-09-30T07:53:28;100772.02;;;16.97;94.03
54924;BME280;40825;52.270;20.984;2023-09-30T07:55:54;100767.94;;;17.03;97.40
54924;BME280;40825;52.270;20.984;2023-09-30T07:58:20;100768.79;;;17.10;94.68
54924;BME280;40825;52.270;20.984;2023-09-30T08:01:19;100765.94;;;17.19;96.39
54924;BME280;40825;52.270;20.984;2023-09-30T08:04:00;100763.91;;;17.28;95.63
54924;BME280;40825;52.270;20.984;2023-09-30T08:06:26;100765.27;;;17.36;94.64
54924;BME280;40825;52.270;20.984;2023-09-30T08:08:51;100768.55;;;17.46;93.09
54924;BME280;40825;52.270;20.984;2023-09-30T08:11:20;100769.43;;;17.58;96.70
54924;BME280;40825;52.270;20.984;2023-09-30T08:13:46;100773.04;;;17.67;96.14
54924;BME280;40825;52.270;20.984;2023-09-30T08:16:12;100771.91;;;17.71;97.52
54924;BME280;40825;52.270;20.984;2023-09-30T08:18:38;100775.02;;;17.71;98.24
54924;BME280;40825;52.270;20.984;2023-09-30T08:21:03;100778.02;;;17.73;96.22
54924;BME280;40825;52.270;20.984;2023-09-30T08:23:31;100776.38;;;17.77;97.52
54924;BME280;40825;52.270;20.984;2023-09-30T08:25:59;100778.09;;;17.78;95.28
54924;BME280;40825;52.270;20.984;2023-09-30T08:28:25;100777.93;;;17.80;96.99
54924;BME280;40825;52.270;20.984;2023-09-30T08:30:50;100779.67;;;17.80;97.39
54924;BME280;40825;52.270;20.984;2023-09-30T08:33:19;100777.48;;;17.82;99.11
54924;BME280;40825;52.270;20.984;2023-09-30T08:35:45;100774.52;;;17.82;97.20
54924;BME280;40825;52.270;20.984;2023-09-30T08:38:10;100773.38;;;17.84;96.80
54924;BME280;40825;52.270;20.984;2023-09-30T08:40:37;100778.11;;;17.90;97.24
54924;BME280;40825;52.270;20.984;2023-09-30T08:43:04;100778.02;;;17.94;98.28
54924;BME280;40825;52.270;20.984;2023-09-30T08:45:33;100778.71;;;17.98;97.89
54924;BME280;40825;52.270;20.984;2023-09-30T08:47:59;100777.16;;;18.01;98.53
54924;BME280;40825;52.270;20.984;2023-09-30T08:50:31;100779.61;;;18.01;97.29
54924;BME280;40825;52.270;20.984;2023-09-30T08:52:57;100781.91;;;18.00;98.32
54924;BME280;40825;52.270;20.984;2023-09-30T08:55:24;100785.05;;;18.01;97.02
54924;BME280;40825;52.270;20.984;2023-09-30T08:57:52;100791.45;;;18.02;98.78
54924;BME280;40825;52.270;20.984;2023-09-30T09:00:20;100791.79;;;18.01;98.48
54924;BME280;40825;52.270;20.984;2023-09-30T09:02:45;100795.23;;;17.99;98.78
54924;BME280;40825;52.270;20.984;2023-09-30T09:05:11;100792.45;;;17.98;97.99
54924;BME280;40825;52.270;20.984;2023-09-30T09:07:37;100797.52;;;17.98;97.15
54924;BME280;40825;52.270;20.984;2023-09-30T09:10:10;100798.82;;;18.00;96.82
54924;BME280;40825;52.270;20.984;2023-09-30T09:12:39;100804.04;;;18.02;97.37
54924;BME280;40825;52.270;20.984;2023-09-30T09:15:06;100802.80;;;18.00;98.19
54924;BME280;40825;52.270;20.984;2023-09-30T09:17:42;100807.03;;;17.99;97.94
54924;BME280;40825;52.270;20.984;2023-09-30T09:20:10;100810.20;;;17.95;98.72
54924;BME280;40825;52.270;20.984;2023-09-30T09:22:43;100815.22;;;17.93;97.78
54924;BME280;40825;52.270;20.984;2023-09-30T09:25:10;100817.11;;;17.91;98.43
54924;BME280;40825;52.270;20.984;2023-09-30T09:27:36;100813.54;;;17.89;98.58
54924;BME280;40825;52.270;20.984;2023-09-30T09:30:21;100812.94;;;17.86;99.58
54924;BME280;40825;52.270;20.984;2023-09-30T09:33:05;100812.22;;;17.84;98.94
54924;BME280;40825;52.270;20.984;2023-09-30T09:35:33;100816.78;;;17.85;98.91
54924;BME280;40825;52.270;20.984;2023-09-30T09:38:07;100821.96;;;17.86;99.34
54924;BME280;40825;52.270;20.984;2023-09-30T09:40:34;100816.84;;;17.87;99.39
54924;BME280;40825;52.270;20.984;2023-09-30T09:43:02;100817.33;;;17.85;99.39
54924;BME280;40825;52.270;20.984;2023-09-30T09:45:33;100817.81;;;17.85;99.35
54924;BME280;40825;52.270;20.984;2023-09-30T09:48:00;100820.76;;;17.84;98.90
54924;BME280;40825;52.270;20.984;2023-09-30T09:50:26;100827.06;;;17.83;99.49
54924;BME280;40825;52.270;20.984;2023-09-30T09:52:53;100831.05;;;17.83;99.45
54924;BME280;40825;52.270;20.984;2023-09-30T09:55:22;100834.81;;;17.82;98.51
54924;BME280;40825;52.270;20.984;2023-09-30T09:57:48;100834.33;;;17.82;99.27
54924;BME280;40825;52.270;20.984;2023-09-30T10:00:20;100838.66;;;17.81;99.24
54924;BME280;40825;52.270;20.984;2023-09-30T10:02:46;100840.14;;;17.77;99.57
54924;BME280;40825;52.270;20.984;2023-09-30T10:05:13;100840.61;;;17.75;99.50
54924;BME280;40825;52.270;20.984;2023-09-30T10:07:52;100841.29;;;17.76;99.85
54924;BME280;40825;52.270;20.984;2023-09-30T10:10:20;100844.83;;;17.75;99.95
54924;BME280;40825;52.270;20.984;2023-09-30T10:12:47;100845.81;;;17.74;99.87
54924;BME280;40825;52.270;20.984;2023-09-30T10:18:03;100857.20;;;17.70;99.94
54924;BME280;40825;52.270;20.984;2023-09-30T10:20:37;100867.31;;;17.66;99.94
54924;BME280;40825;52.270;20.984;2023-09-30T10:23:25;100867.83;;;17.63;99.98
54924;BME280;40825;52.270;20.984;2023-09-30T10:25:54;100868.36;;;17.61;100.00
54924;BME280;40825;52.270;20.984;2023-09-30T10:28:39;100872.76;;;17.62;100.00
54924;BME280;40825;52.270;20.984;2023-09-30T10:31:10;100878.82;;;17.58;100.00
54924;BME280;40825;52.270;20.984;2023-09-30T10:36:36;100892.11;;;17.44;100.00
54924;BME280;40825;52.270;20.984;2023-09-30T10:39:03;100894.55;;;17.37;100.00
54924;BME280;40825;52.270;20.984;2023-09-30T10:46:58;100919.98;;;17.31;100.00
54924;BME280;40825;52.270;20.984;2023-09-30T10:51:53;100927.19;;;17.20;100.00
54924;BME280;40825;52.270;20.984;2023-09-30T10:54:32;100930.00;;;17.15;100.00
54924;BME280;40825;52.270;20.984;2023-09-30T10:56:59;100930.02;;;17.14;99.89
54924;BME280;40825;52.270;20.984;2023-09-30T10:59:26;100933.14;;;17.13;99.72
54924;BME280;40825;52.270;20.984;2023-09-30T11:01:53;100934.70;;;17.20;99.47
54924;BME280;40825;52.270;20.984;2023-09-30T11:04:19;100934.05;;;17.26;99.40
54924;BME280;40825;52.270;20.984;2023-09-30T11:06:46;100942.41;;;17.29;98.64
54924;BME280;40825;52.270;20.984;2023-09-30T11:09:19;100948.42;;;17.25;98.57
54924;BME280;40825;52.270;20.984;2023-09-30T11:11:47;100951.84;;;17.20;98.55
54924;BME280;40825;52.270;20.984;2023-09-30T11:14:29;100957.74;;;17.15;98.22
54924;BME280;40825;52.270;20.984;2023-09-30T11:17:02;100959.42;;;17.09;98.12
54924;BME280;40825;52.270;20.984;2023-09-30T11:19:41;100963.98;;;16.97;98.65
54924;BME280;40825;52.270;20.984;2023-09-30T11:22:11;100971.30;;;16.91;98.60
54924;BME280;40825;52.270;20.984;2023-09-30T11:24:37;100978.73;;;16.86;98.64
54924;BME280;40825;52.270;20.984;2023-09-30T11:27:02;100980.35;;;16.78;99.42
54924;BME280;40825;52.270;20.984;2023-09-30T11:29:28;100982.86;;;16.71;98.93
54924;BME280;40825;52.270;20.984;2023-09-30T11:31:54;100982.11;;;16.64;98.98
54924;BME280;40825;52.270;20.984;2023-09-30T11:34:31;100981.29;;;16.64;98.74
54924;BME280;40825;52.270;20.984;2023-09-30T11:36:57;100978.48;;;16.67;98.14
54924;BME280;40825;52.270;20.984;2023-09-30T11:39:28;100975.89;;;16.75;97.79
54924;BME280;40825;52.270;20.984;2023-09-30T11:41:54;100971.22;;;16.85;97.72
54924;BME280;40825;52.270;20.984;2023-09-30T11:44:25;100963.98;;;16.95;97.49
54924;BME280;40825;52.270;20.984;2023-09-30T11:47:00;100969.52;;;17.06;97.32
54924;BME280;40825;52.270;20.984;2023-09-30T11:49:34;100975.25;;;17.10;97.08
54924;BME280;40825;52.270;20.984;2023-09-30T11:52:02;100976.67;;;17.08;97.13
54924;BME280;40825;52.270;20.984;2023-09-30T11:54:33;100982.55;;;17.03;96.48
54924;BME280;40825;52.270;20.984;2023-09-30T11:57:00;100987.66;;;17.00;96.75
54924;BME280;40825;52.270;20.984;2023-09-30T11:59:26;100977.67;;;17.00;96.61
54924;BME280;40825;52.270;20.984;2023-09-30T12:01:52;100978.10;;;16.98;96.25
54924;BME280;40825;52.270;20.984;2023-09-30T12:04:20;100973.44;;;16.99;96.35
54924;BME280;40825;52.270;20.984;2023-09-30T12:06:46;100967.08;;;17.04;96.09
54924;BME280;40825;52.270;20.984;2023-09-30T12:09:17;100962.83;;;17.11;95.64
54924;BME280;40825;52.270;20.984;2023-09-30T12:11:51;100964.70;;;17.12;95.52
54924;BME280;40825;52.270;20.984;2023-09-30T12:14:17;100969.34;;;17.12;95.34
54924;BME280;40825;52.270;20.984;2023-09-30T12:16:43;100971.86;;;17.10;94.94
54924;BME280;40825;52.270;20.984;2023-09-30T12:19:13;100971.16;;;17.08;94.78
54924;BME280;40825;52.270;20.984;2023-09-30T12:21:41;100971.71;;;17.12;94.96
54924;BME280;40825;52.270;20.984;2023-09-30T12:24:07;100975.05;;;17.20;94.71
54924;BME280;40825;52.270;20.984;2023-09-30T12:26:35;100971.86;;;17.32;94.79
54924;BME280;40825;52.270;20.984;2023-09-30T12:29:02;100972.23;;;17.50;94.64
54924;BME280;40825;52.270;20.984;2023-09-30T12:31:28;100976.99;;;17.66;94.39
54924;BME280;40825;52.270;20.984;2023-09-30T12:33:54;100974.58;;;17.82;93.93
54924;BME280;40825;52.270;20.984;2023-09-30T12:36:21;100973.42;;;17.94;93.38
54924;BME280;40825;52.270;20.984;2023-09-30T12:38:47;100975.37;;;18.00;92.34
54924;BME280;40825;52.270;20.984;2023-09-30T12:41:12;100975.29;;;18.01;91.65
54924;BME280;40825;52.270;20.984;2023-09-30T12:43:38;100970.46;;;18.00;90.18
54924;BME280;40825;52.270;20.984;2023-09-30T12:46:04;100968.95;;;18.02;89.44
54924;BME280;40825;52.270;20.984;2023-09-30T12:48:32;100968.54;;;18.04;87.80
54924;BME280;40825;52.270;20.984;2023-09-30T12:50:58;100969.23;;;18.05;86.73
54924;BME280;40825;52.270;20.984;2023-09-30T12:53:23;100969.36;;;18.08;85.26
54924;BME280;40825;52.270;20.984;2023-09-30T12:55:49;100975.82;;;18.11;84.65